Angarsk, Russia
Current Conditions -  °F | °C
As of 5:30 PM on Friday 19 Dec 2014 (Local Time) from UIII Reporting Station
Overcast Overcast  
Wind Chill:   Ceiling: 20000
Heat Index: 14°   Visibility: 4mi
Dew Point: 10°   Wind: 4mph
Humidity: 86%   Direction: 290°WNW
Pressure: 30.45"   Gusts: NA
Location:  52.57°N, 103.91°E
Report Text: UIII 190930Z 29002MPS 6000 SCT100 OVC200 M10/M12 Q1031 NOSIGRMK QFE728/0971 30850345
Loading
Personal Weather Stations






























Interactive Weather Map New forecast layout! Learn more

10-Day Weather Forecast

Advertisements
Track Severe Weather on mobile